Terminal Aerodrome Forecast
Issued by NWS Albany, NY

Current Version | Previous Version | Text Only | Print | Product List | Glossary Off
Versions: 1 2 3 4 5 6 7 8 9 10 11 12 13 14 15 16

000
FTUS41 KALY 091733 CCK
TAFPOU
TAF COR
KPOU 091733Z 0918/1018 22008KT P6SM BKN060 OVC100
      TEMPO 0920/0922 6SM -RA BKN020 OVC040
     FM092200 22006KT 6SM -RA BKN015 OVC030
     FM100300 VRB04KT 3SM -RA BR SCT008 BKN011 OVC030
     FM100900 VRB02KT 3SM BR SCT008 BKN011 OVC030
     FM101300 33006KT P6SM BKN025 OVC030
     FM101700 33006KT P6SM VCSH SCT025 OVC035=

USA.gov is the U.S. government's official web portal to all federal, state and local government web resources and services.